createdAt,value
2022-10-09T00:01:25.152Z,34.00
2022-10-09T00:03:55.164Z,28.40
2022-10-09T00:06:26.511Z,31.10
2022-10-09T00:08:54.582Z,30.50
2022-10-09T00:11:26.137Z,34.00
2022-10-09T00:13:55.849Z,28.10
2022-10-09T00:16:25.729Z,33.70
2022-10-09T00:18:54.543Z,34.70
2022-10-09T00:21:27.128Z,31.70
2022-10-09T00:23:57.756Z,29.70
2022-10-09T00:26:26.331Z,28.90
2022-10-09T00:28:55.313Z,26.80
2022-10-09T00:31:24.088Z,23.30
2022-10-09T00:33:52.195Z,23.50
2022-10-09T00:36:23.643Z,26.10
2022-10-09T00:38:54.172Z,25.40
2022-10-09T00:41:30.747Z,24.50
2022-10-09T00:44:42.947Z,21.60
2022-10-09T00:47:20.851Z,22.80
2022-10-09T00:49:51.993Z,20.60
2022-10-09T00:52:21.804Z,18.70
2022-10-09T00:54:50.246Z,18.00
2022-10-09T00:57:18.682Z,21.60
2022-10-09T00:59:46.735Z,19.70
2022-10-09T01:02:14.753Z,16.30
2022-10-09T01:04:42.777Z,19.80
2022-10-09T01:07:42.899Z,19.70
2022-10-09T01:10:32.066Z,17.40
2022-10-09T01:13:32.878Z,15.40
2022-10-09T01:16:43.779Z,15.10
2022-10-09T01:19:35.814Z,18.90
2022-10-09T01:24:45.268Z,15.30
2022-10-09T01:27:22.349Z,11.90
2022-10-09T01:29:56.976Z,12.30
2022-10-09T01:32:31.497Z,16.90
2022-10-09T01:35:02.026Z,11.10
2022-10-09T01:37:31.943Z,12.20
2022-10-09T01:40:01.857Z,16.00
2022-10-09T01:42:31.770Z,14.70
2022-10-09T01:44:59.846Z,12.00
2022-10-09T01:47:28.220Z,14.30
2022-10-09T01:49:59.671Z,16.00
2022-10-09T01:53:00.924Z,13.90
2022-10-09T01:55:35.137Z,12.00
2022-10-09T01:58:18.062Z,9.70
2022-10-09T02:00:54.318Z,11.20
2022-10-09T02:03:26.280Z,11.00
2022-10-09T02:05:55.918Z,11.50
2022-10-09T02:08:26.120Z,13.20
2022-10-09T02:10:59.401Z,10.00
2022-10-09T02:13:28.223Z,11.00
2022-10-09T02:15:59.181Z,11.60
2022-10-09T02:18:38.437Z,10.60
2022-10-09T02:21:15.446Z,13.20
2022-10-09T02:23:48.289Z,8.40
2022-10-09T02:26:16.709Z,9.00
2022-10-09T02:28:46.196Z,9.80
2022-10-09T02:31:27.033Z,8.70
2022-10-09T02:34:00.192Z,9.60
2022-10-09T02:36:29.475Z,9.80
2022-10-09T02:38:58.057Z,9.30
2022-10-09T02:41:27.047Z,10.50
2022-10-09T02:43:55.566Z,8.60
2022-10-09T02:46:23.756Z,9.40
2022-10-09T02:48:52.089Z,8.70
2022-10-09T02:51:20.257Z,10.20
2022-10-09T02:53:48.330Z,8.30
2022-10-09T02:56:16.402Z,12.90
2022-10-09T02:58:44.331Z,9.10
2022-10-09T03:01:12.646Z,11.20
2022-10-09T03:03:41.024Z,10.10
2022-10-09T03:06:10.430Z,6.60
2022-10-09T03:08:40.955Z,8.50
2022-10-09T03:13:55.735Z,7.80
2022-10-09T03:16:25.585Z,6.80
2022-10-09T03:18:54.625Z,8.00
2022-10-09T03:21:25.379Z,4.60
2022-10-09T03:23:53.842Z,10.30
2022-10-09T03:26:25.310Z,5.60
2022-10-09T03:28:55.222Z,5.90
2022-10-09T03:34:13.998Z,6.30
2022-10-09T03:36:42.477Z,8.00
2022-10-09T03:39:11.073Z,6.00
2022-10-09T03:41:39.134Z,8.10
2022-10-09T03:44:07.202Z,6.40
2022-10-09T03:46:35.658Z,5.70
2022-10-09T03:49:03.864Z,7.80
2022-10-09T03:51:31.931Z,8.80
2022-10-09T03:54:00.000Z,8.70
2022-10-09T03:56:28.174Z,8.10
2022-10-09T03:58:56.247Z,6.50
2022-10-09T04:01:24.402Z,5.40
2022-10-09T04:03:52.593Z,8.70
2022-10-09T04:06:20.562Z,7.60
2022-10-09T04:08:48.562Z,6.90
2022-10-09T04:11:16.607Z,6.90
2022-10-09T04:13:44.675Z,5.90
2022-10-09T04:16:13.046Z,6.00
2022-10-09T04:18:43.684Z,7.30
2022-10-09T04:21:13.303Z,7.50
2022-10-09T04:23:41.365Z,9.60
2022-10-09T04:26:12.199Z,9.80
2022-10-09T04:28:40.438Z,5.30
2022-10-09T04:31:08.688Z,9.30
2022-10-09T04:33:36.925Z,6.70
2022-10-09T04:36:05.201Z,5.20
2022-10-09T04:38:33.272Z,8.20
2022-10-09T04:41:04.497Z,5.30
2022-10-09T04:43:34.435Z,6.90
2022-10-09T04:46:07.478Z,5.70
2022-10-09T04:48:43.421Z,4.00
2022-10-09T04:51:12.576Z,5.30
2022-10-09T04:53:41.344Z,6.20
2022-10-09T04:56:15.372Z,4.70
2022-10-09T04:58:44.981Z,4.70
2022-10-09T05:01:17.020Z,6.30
2022-10-09T05:03:45.629Z,9.50
2022-10-09T05:06:14.599Z,5.10
2022-10-09T05:08:43.514Z,8.60
2022-10-09T05:11:14.658Z,8.10
2022-10-09T05:13:45.641Z,6.90
2022-10-09T05:16:17.420Z,4.00
2022-10-09T05:21:15.501Z,4.40
2022-10-09T05:23:44.103Z,8.70
2022-10-09T05:26:15.783Z,7.80
2022-10-09T05:28:44.652Z,11.20
2022-10-09T05:31:22.364Z,8.80
2022-10-09T05:33:51.190Z,8.20
2022-10-09T05:36:20.045Z,5.20
2022-10-09T05:38:48.124Z,6.00
2022-10-09T05:41:18.136Z,7.70
2022-10-09T05:43:48.157Z,7.20
2022-10-09T05:46:20.480Z,7.10
2022-10-09T05:48:54.432Z,6.90
2022-10-09T05:51:26.908Z,7.10
2022-10-09T05:53:57.003Z,6.30
2022-10-09T05:56:30.219Z,4.20
2022-10-09T05:59:04.227Z,6.70
2022-10-09T06:01:36.259Z,4.90
2022-10-09T06:04:05.378Z,6.50
2022-10-09T06:06:37.249Z,8.10
2022-10-09T06:09:09.449Z,6.60
2022-10-09T06:11:39.434Z,5.80
2022-10-09T06:14:10.578Z,5.70
2022-10-09T06:16:41.451Z,6.00
2022-10-09T06:19:13.479Z,10.50
2022-10-09T06:21:42.165Z,10.90
2022-10-09T06:24:29.097Z,10.30
2022-10-09T06:26:58.585Z,6.40
2022-10-09T06:29:27.406Z,11.60
2022-10-09T06:31:55.518Z,8.60
2022-10-09T06:34:24.333Z,4.50
2022-10-09T06:36:52.715Z,7.30
2022-10-09T06:39:20.987Z,5.60
2022-10-09T06:41:49.368Z,6.60
2022-10-09T06:44:36.073Z,5.60
2022-10-09T06:47:04.051Z,6.90
2022-10-09T06:49:32.116Z,5.60
2022-10-09T06:52:00.186Z,5.60
2022-10-09T06:54:28.256Z,5.20
2022-10-09T06:56:56.226Z,5.90
2022-10-09T06:59:24.195Z,6.40
2022-10-09T07:01:52.284Z,5.70
2022-10-09T07:04:21.874Z,5.50
2022-10-09T07:06:49.946Z,4.80
2022-10-09T07:09:18.017Z,4.90
2022-10-09T07:11:49.504Z,6.10
2022-10-09T07:14:18.308Z,5.30
2022-10-09T07:16:48.561Z,5.90
2022-10-09T07:19:17.920Z,6.50
2022-10-09T07:21:48.413Z,4.50
2022-10-09T07:24:17.365Z,6.00
2022-10-09T07:26:47.111Z,5.60
2022-10-09T07:29:16.513Z,8.80
2022-10-09T07:31:45.214Z,11.90
2022-10-09T07:34:13.283Z,16.50
2022-10-09T07:36:41.344Z,9.60
2022-10-09T07:39:09.418Z,10.70
2022-10-09T07:41:37.690Z,8.00
2022-10-09T07:44:05.761Z,6.10
2022-10-09T07:46:34.385Z,7.90
2022-10-09T07:49:03.849Z,8.50
2022-10-09T07:51:33.236Z,6.50
2022-10-09T07:54:04.442Z,7.20
2022-10-09T07:56:35.519Z,5.50
2022-10-09T07:59:06.477Z,7.40
2022-10-09T08:01:36.155Z,11.60
2022-10-09T08:04:05.272Z,7.40
2022-10-09T08:06:33.978Z,7.30
2022-10-09T08:09:03.780Z,7.10
2022-10-09T08:11:32.471Z,7.50
2022-10-09T08:14:00.541Z,7.70
2022-10-09T08:16:29.024Z,7.40
2022-10-09T08:18:59.758Z,7.40
2022-10-09T08:21:28.821Z,4.90
2022-10-09T08:23:58.859Z,4.50
2022-10-09T08:26:31.041Z,5.20
2022-10-09T08:29:02.279Z,6.40
2022-10-09T08:31:31.987Z,5.40
2022-10-09T08:34:03.043Z,5.70
2022-10-09T08:36:32.413Z,8.10
2022-10-09T08:39:00.708Z,7.80
2022-10-09T08:41:46.800Z,7.00
2022-10-09T08:44:42.110Z,7.10
2022-10-09T08:47:24.928Z,5.60
2022-10-09T08:50:11.329Z,4.80
2022-10-09T08:52:51.692Z,9.10
2022-10-09T08:55:26.722Z,8.70
2022-10-09T08:57:56.846Z,5.10
2022-10-09T09:00:29.533Z,7.90
2022-10-09T09:03:16.803Z,8.00
2022-10-09T09:06:05.295Z,6.90
2022-10-09T09:09:01.423Z,5.50
2022-10-09T09:11:54.991Z,6.40
2022-10-09T09:15:02.184Z,6.90
2022-10-09T09:17:36.190Z,8.40
2022-10-09T09:20:10.201Z,9.50
2022-10-09T09:22:43.802Z,7.10
2022-10-09T09:25:20.258Z,8.50
2022-10-09T09:27:49.187Z,6.70
2022-10-09T09:30:26.145Z,5.90
2022-10-09T09:33:01.177Z,5.90
2022-10-09T09:35:56.383Z,6.80
2022-10-09T09:38:24.455Z,5.40
2022-10-09T09:40:53.866Z,7.10
2022-10-09T09:43:24.488Z,5.90
2022-10-09T09:45:55.120Z,7.10
2022-10-09T09:48:42.647Z,4.90
2022-10-09T09:51:34.429Z,7.00
2022-10-09T09:54:15.655Z,3.80
2022-10-09T09:59:39.010Z,4.50
2022-10-09T10:02:14.986Z,4.30
2022-10-09T10:05:17.777Z,5.30
2022-10-09T10:07:50.046Z,6.40
2022-10-09T10:10:25.313Z,4.30
2022-10-09T10:12:59.502Z,5.70
2022-10-09T10:15:32.902Z,9.00
2022-10-09T10:18:06.913Z,3.50
2022-10-09T10:20:56.793Z,4.90
2022-10-09T10:23:36.946Z,5.20
2022-10-09T10:26:11.675Z,5.30
2022-10-09T10:29:23.946Z,9.00
2022-10-09T10:32:04.810Z,5.60
2022-10-09T10:35:17.655Z,4.90
2022-10-09T10:37:57.521Z,5.70
2022-10-09T10:40:34.706Z,2.40
2022-10-09T10:43:11.687Z,4.10
2022-10-09T10:46:10.581Z,5.50
2022-10-09T10:48:48.675Z,4.50
2022-10-09T10:51:35.190Z,3.40
2022-10-09T10:54:18.827Z,5.30
2022-10-09T10:56:53.554Z,5.10
2022-10-09T10:59:47.533Z,3.80
2022-10-09T11:02:42.041Z,2.90
2022-10-09T11:05:48.395Z,4.80
2022-10-09T11:08:48.515Z,3.30
2022-10-09T11:11:25.721Z,6.20
2022-10-09T11:14:09.444Z,4.60
2022-10-09T11:16:58.706Z,4.80
2022-10-09T11:20:08.762Z,5.10
2022-10-09T11:23:08.785Z,9.70
2022-10-09T11:25:41.746Z,4.00
2022-10-09T11:28:24.841Z,4.00
2022-10-09T11:31:12.895Z,4.40
2022-10-09T11:33:51.319Z,3.30
2022-10-09T11:36:33.248Z,4.20
2022-10-09T11:41:32.177Z,3.00
2022-10-09T11:44:12.407Z,3.20
2022-10-09T11:47:04.712Z,3.10
2022-10-09T11:50:01.186Z,5.50
2022-10-09T11:52:52.092Z,2.30
2022-10-09T11:55:26.901Z,4.10
2022-10-09T11:57:55.299Z,2.70
2022-10-09T12:00:33.632Z,2.80
2022-10-09T12:03:05.368Z,5.80
2022-10-09T12:05:36.308Z,4.00
2022-10-09T12:08:12.080Z,4.40
2022-10-09T12:11:08.188Z,4.70
2022-10-09T12:13:39.433Z,4.00
2022-10-09T12:16:11.002Z,3.50
2022-10-09T12:18:45.713Z,3.80
2022-10-09T12:21:25.766Z,5.10
2022-10-09T12:23:54.370Z,2.30
2022-10-09T12:26:24.061Z,4.30
2022-10-09T12:29:02.243Z,3.50
2022-10-09T12:31:35.208Z,3.70
2022-10-09T12:34:16.330Z,5.10
2022-10-09T12:36:44.505Z,3.20
2022-10-09T12:39:23.839Z,6.00
2022-10-09T12:41:55.392Z,4.50
2022-10-09T12:44:33.194Z,4.00
2022-10-09T12:47:14.581Z,4.90
2022-10-09T12:49:42.557Z,3.20
2022-10-09T12:52:19.525Z,2.70
2022-10-09T12:54:47.474Z,3.50
2022-10-09T12:57:16.869Z,2.70
2022-10-09T12:59:47.222Z,3.30
2022-10-09T13:02:16.859Z,4.30
2022-10-09T13:05:00.448Z,4.40
2022-10-09T13:07:30.586Z,5.10
2022-10-09T13:10:09.099Z,4.00
2022-10-09T13:12:38.092Z,3.90
2022-10-09T13:15:27.055Z,2.70
2022-10-09T13:17:55.227Z,4.20
2022-10-09T13:20:30.576Z,3.90
2022-10-09T13:23:04.273Z,5.80
2022-10-09T13:25:38.078Z,4.30
2022-10-09T13:28:06.596Z,3.60
2022-10-09T13:30:34.774Z,3.90
2022-10-09T13:33:02.906Z,2.70
2022-10-09T13:35:30.980Z,3.70
2022-10-09T13:37:59.048Z,4.90
2022-10-09T13:40:27.121Z,3.10
2022-10-09T13:43:00.519Z,5.30
2022-10-09T13:45:29.084Z,3.40
2022-10-09T13:47:57.069Z,3.10
2022-10-09T13:50:26.173Z,4.20
2022-10-09T13:52:54.235Z,3.20
2022-10-09T13:55:22.307Z,3.40
2022-10-09T13:57:50.520Z,2.30
2022-10-09T14:00:19.064Z,6.20
2022-10-09T14:02:47.136Z,5.20
2022-10-09T14:05:15.310Z,4.10
2022-10-09T14:07:43.380Z,3.10
2022-10-09T14:10:11.452Z,6.90
2022-10-09T14:12:40.044Z,3.40
2022-10-09T14:15:08.452Z,2.50
2022-10-09T14:17:36.588Z,4.00
2022-10-09T14:20:06.711Z,3.20
2022-10-09T14:22:34.778Z,3.00
2022-10-09T14:25:03.260Z,2.60
2022-10-09T14:27:31.401Z,4.20
2022-10-09T14:29:59.607Z,3.00
2022-10-09T14:32:27.575Z,2.40
2022-10-09T14:34:55.756Z,3.70
2022-10-09T14:37:40.441Z,2.80
2022-10-09T14:40:11.329Z,2.50
2022-10-09T14:42:39.899Z,2.50
2022-10-09T14:45:09.626Z,4.30
2022-10-09T14:47:37.713Z,4.00
2022-10-09T14:50:06.323Z,6.30
2022-10-09T14:52:34.367Z,7.60
2022-10-09T14:55:02.540Z,3.30
2022-10-09T14:57:35.199Z,3.70
2022-10-09T15:00:05.710Z,2.90
2022-10-09T15:02:34.100Z,4.60
2022-10-09T15:05:02.201Z,6.40
2022-10-09T15:07:31.499Z,4.40
2022-10-09T15:09:59.571Z,5.00
2022-10-09T15:12:27.539Z,4.00
2022-10-09T15:14:56.028Z,4.30
2022-10-09T15:17:23.994Z,5.40
2022-10-09T15:19:54.108Z,4.20
2022-10-09T15:22:22.187Z,3.90
2022-10-09T15:24:50.149Z,3.70
2022-10-09T15:27:18.118Z,5.20
2022-10-09T15:29:46.088Z,8.90
2022-10-09T15:32:14.159Z,3.40
2022-10-09T15:34:42.158Z,5.30
2022-10-09T15:37:10.199Z,4.40
2022-10-09T15:39:38.373Z,7.50
2022-10-09T15:42:07.161Z,4.90
2022-10-09T15:44:35.232Z,4.30
2022-10-09T15:47:03.611Z,4.60
2022-10-09T15:49:31.680Z,6.30
2022-10-09T15:51:59.957Z,3.60
2022-10-09T15:54:28.029Z,6.60
2022-10-09T15:56:56.100Z,5.70
2022-10-09T15:59:25.912Z,5.90
2022-10-09T16:01:53.904Z,5.90
2022-10-09T16:04:22.059Z,6.70
2022-10-09T16:06:50.129Z,4.60
2022-10-09T16:09:18.198Z,9.20
2022-10-09T16:11:46.270Z,6.50
2022-10-09T16:14:14.249Z,9.80
2022-10-09T16:16:44.256Z,8.60
2022-10-09T16:19:12.225Z,8.80
2022-10-09T16:21:40.295Z,11.00
2022-10-09T16:26:54.054Z,9.20
2022-10-09T16:29:22.123Z,8.50
2022-10-09T16:31:50.528Z,9.70
2022-10-09T16:34:18.892Z,11.50
2022-10-09T16:36:46.850Z,14.10
2022-10-09T16:39:14.921Z,18.50
2022-10-09T16:41:43.198Z,12.00
2022-10-09T16:44:14.324Z,12.70
2022-10-09T16:46:42.723Z,17.60
2022-10-09T16:49:20.053Z,29.10
2022-10-09T16:51:50.952Z,106.30
2022-10-09T16:54:19.130Z,35.50
2022-10-09T16:56:47.191Z,46.70
2022-10-09T16:59:15.568Z,41.20
2022-10-09T17:01:45.381Z,67.00
2022-10-09T17:04:15.028Z,48.50
2022-10-09T17:06:44.784Z,97.20
2022-10-09T17:09:14.448Z,48.70
2022-10-09T17:11:43.417Z,52.90
2022-10-09T17:14:13.543Z,80.90
2022-10-09T17:16:43.258Z,117.40
2022-10-09T17:19:11.712Z,94.70
2022-10-09T17:21:39.781Z,90.20
2022-10-09T17:24:08.364Z,75.10
2022-10-09T17:26:36.444Z,67.50
2022-10-09T17:29:04.926Z,68.30
2022-10-09T17:31:34.218Z,58.60
2022-10-09T17:34:04.340Z,57.20
2022-10-09T17:36:36.401Z,62.30
2022-10-09T17:39:07.323Z,57.80
2022-10-09T17:41:35.620Z,55.90
2022-10-09T17:44:04.815Z,46.20
2022-10-09T17:46:32.987Z,46.90
2022-10-09T17:49:01.365Z,47.00
2022-10-09T17:51:32.919Z,47.10
2022-10-09T17:54:05.932Z,56.40
2022-10-09T17:56:37.561Z,49.60
2022-10-09T17:59:06.438Z,40.00
2022-10-09T18:01:34.757Z,46.60
2022-10-09T18:04:03.311Z,52.70
2022-10-09T18:06:33.228Z,53.70
2022-10-09T18:09:02.612Z,38.20
2022-10-09T18:11:30.912Z,60.10
2022-10-09T18:14:01.512Z,41.70
2022-10-09T18:16:37.156Z,49.40
2022-10-09T18:19:13.251Z,94.50
2022-10-09T18:21:45.790Z,76.30
2022-10-09T18:24:15.015Z,91.80
2022-10-09T18:26:43.866Z,75.90
2022-10-09T18:29:12.903Z,90.60
2022-10-09T18:31:42.830Z,71.80
2022-10-09T18:34:11.809Z,52.10
2022-10-09T18:36:39.889Z,46.90
2022-10-09T18:39:14.862Z,46.50
2022-10-09T18:41:44.826Z,43.80
2022-10-09T18:44:18.529Z,40.10
2022-10-09T18:46:56.741Z,53.20
2022-10-09T18:49:29.738Z,39.10
2022-10-09T18:52:00.524Z,47.70
2022-10-09T18:54:30.651Z,46.40
2022-10-09T18:56:58.959Z,43.50
2022-10-09T18:59:27.032Z,53.60
2022-10-09T19:01:55.102Z,47.50
2022-10-09T19:04:24.303Z,50.40
2022-10-09T19:06:54.817Z,44.20
2022-10-09T19:09:24.544Z,56.30
2022-10-09T19:11:55.280Z,64.30
2022-10-09T19:14:25.768Z,88.00
2022-10-09T19:16:54.385Z,76.20
2022-10-09T19:19:23.457Z,68.20
2022-10-09T19:21:52.678Z,66.40
2022-10-09T19:24:21.929Z,70.00
2022-10-09T19:26:50.664Z,52.50
2022-10-09T19:29:18.841Z,56.70
2022-10-09T19:31:50.629Z,52.10
2022-10-09T19:34:20.168Z,48.40
2022-10-09T19:36:49.803Z,50.50
2022-10-09T19:39:20.152Z,39.90
2022-10-09T19:41:51.228Z,39.60
2022-10-09T19:44:20.046Z,29.20
2022-10-09T19:46:48.651Z,25.80
2022-10-09T19:49:17.030Z,17.70
2022-10-09T19:51:45.989Z,22.30
2022-10-09T19:54:14.093Z,19.40
2022-10-09T19:56:42.267Z,22.70
2022-10-09T19:59:10.952Z,22.20
2022-10-09T20:01:40.576Z,25.10
2022-10-09T20:04:10.997Z,25.20
2022-10-09T20:06:50.247Z,29.10
2022-10-09T20:09:28.297Z,24.60
2022-10-09T20:12:03.298Z,23.90
2022-10-09T20:14:40.847Z,24.20
2022-10-09T20:17:15.414Z,23.70
2022-10-09T20:19:47.229Z,26.70
2022-10-09T20:22:20.679Z,25.30
2022-10-09T20:25:01.418Z,25.70
2022-10-09T20:27:37.003Z,23.10
2022-10-09T20:30:12.742Z,29.40
2022-10-09T20:32:41.489Z,27.10
2022-10-09T20:35:10.263Z,23.40
2022-10-09T20:37:38.347Z,26.00
2022-10-09T20:40:07.238Z,28.10
2022-10-09T20:42:35.513Z,29.40
2022-10-09T20:45:03.892Z,23.20
2022-10-09T20:47:31.964Z,23.20
2022-10-09T20:50:00.136Z,23.70
2022-10-09T20:52:28.178Z,70.80
2022-10-09T20:54:56.586Z,85.40
2022-10-09T20:57:24.762Z,43.10
2022-10-09T20:59:52.837Z,31.50
2022-10-09T21:02:20.902Z,23.50
2022-10-09T21:04:48.974Z,21.50
2022-10-09T21:07:16.948Z,23.50
2022-10-09T21:09:45.016Z,21.70
2022-10-09T21:12:13.086Z,24.50
2022-10-09T21:14:41.054Z,16.90
2022-10-09T21:17:09.024Z,21.00
2022-10-09T21:19:36.993Z,19.90
2022-10-09T21:22:08.214Z,19.90
2022-10-09T21:24:44.407Z,19.10
2022-10-09T21:27:12.681Z,20.90
2022-10-09T21:29:41.258Z,30.10
2022-10-09T21:32:09.739Z,19.00
2022-10-09T21:34:37.811Z,18.60
2022-10-09T21:37:21.064Z,16.90
2022-10-09T21:39:50.337Z,14.10
2022-10-09T21:42:18.409Z,16.90
2022-10-09T21:44:46.685Z,14.10
2022-10-09T21:47:18.956Z,13.60
2022-10-09T21:49:47.334Z,21.20
2022-10-09T21:52:15.713Z,16.90
2022-10-09T21:54:45.972Z,14.10
2022-10-09T21:57:15.235Z,17.00
2022-10-09T21:59:43.305Z,16.70
2022-10-09T22:02:11.275Z,12.80
2022-10-09T22:04:39.351Z,19.10
2022-10-09T22:07:07.419Z,14.30
2022-10-09T22:09:35.592Z,14.90
2022-10-09T22:12:04.063Z,19.00
2022-10-09T22:14:32.348Z,17.60
2022-10-09T22:17:00.422Z,15.80
2022-10-09T22:19:28.518Z,16.80
2022-10-09T22:21:56.916Z,14.40
2022-10-09T22:24:29.044Z,16.10
2022-10-09T22:26:58.749Z,17.90
2022-10-09T22:29:28.048Z,17.00
2022-10-09T22:31:56.221Z,15.30
2022-10-09T22:34:24.810Z,16.40
2022-10-09T22:36:52.877Z,16.30
2022-10-09T22:39:21.154Z,15.90
2022-10-09T22:41:49.431Z,19.80
2022-10-09T22:44:17.810Z,13.80
2022-10-09T22:46:49.051Z,15.30
2022-10-09T22:49:18.404Z,16.80
2022-10-09T22:51:46.730Z,13.90
2022-10-09T22:54:15.314Z,15.80
2022-10-09T22:56:45.535Z,22.20
2022-10-09T22:59:15.727Z,14.40
2022-10-09T23:01:53.737Z,13.50
2022-10-09T23:04:23.573Z,15.00
2022-10-09T23:06:54.414Z,15.60
2022-10-09T23:09:25.042Z,14.10
2022-10-09T23:11:54.137Z,22.00
2022-10-09T23:14:22.108Z,14.60
2022-10-09T23:16:50.715Z,13.10
2022-10-09T23:19:19.093Z,14.90
2022-10-09T23:21:47.534Z,15.00
2022-10-09T23:24:17.860Z,14.20
2022-10-09T23:26:46.963Z,15.10
2022-10-09T23:29:17.910Z,12.30
2022-10-09T23:31:46.407Z,13.60
2022-10-09T23:34:14.777Z,15.10
2022-10-09T23:36:42.735Z,12.90
2022-10-09T23:39:10.803Z,12.90
2022-10-09T23:41:39.185Z,15.80
2022-10-09T23:44:07.156Z,14.10
2022-10-09T23:46:37.694Z,17.80
2022-10-09T23:49:06.605Z,18.70
2022-10-09T23:51:34.849Z,18.90
2022-10-09T23:54:03.232Z,19.70
2022-10-09T23:56:34.478Z,14.40
2022-10-09T23:59:08.313Z,14.50
